sensor_id;sensor_type;location;lat;lon;timestamp;P1;durP1;ratioP1;P2;durP2;ratioP2
12861;SDS011;6499;66.348;14.134;2022-10-03T00:02:32;2.57;;;1.70;;
12861;SDS011;6499;66.348;14.134;2022-10-03T00:05:09;2.13;;;1.73;;
12861;SDS011;6499;66.348;14.134;2022-10-03T00:07:47;2.60;;;1.57;;
12861;SDS011;6499;66.348;14.134;2022-10-03T00:10:20;1.83;;;1.50;;
12861;SDS011;6499;66.348;14.134;2022-10-03T00:15:33;3.90;;;1.33;;
12861;SDS011;6499;66.348;14.134;2022-10-03T00:18:05;2.63;;;1.63;;
12861;SDS011;6499;66.348;14.134;2022-10-03T00:20:39;3.00;;;1.60;;
12861;SDS011;6499;66.348;14.134;2022-10-03T00:23:12;2.43;;;1.20;;
12861;SDS011;6499;66.348;14.134;2022-10-03T00:25:42;2.33;;;1.60;;
12861;SDS011;6499;66.348;14.134;2022-10-03T00:28:16;2.33;;;1.50;;
12861;SDS011;6499;66.348;14.134;2022-10-03T00:30:53;3.50;;;1.57;;
12861;SDS011;6499;66.348;14.134;2022-10-03T00:33:28;2.47;;;1.60;;
12861;SDS011;6499;66.348;14.134;2022-10-03T00:35:59;2.97;;;1.50;;
12861;SDS011;6499;66.348;14.134;2022-10-03T00:41:16;1.97;;;1.37;;
12861;SDS011;6499;66.348;14.134;2022-10-03T00:46:33;1.80;;;1.23;;
12861;SDS011;6499;66.348;14.134;2022-10-03T00:51:45;3.00;;;1.40;;
12861;SDS011;6499;66.348;14.134;2022-10-03T00:54:22;2.13;;;1.27;;
12861;SDS011;6499;66.348;14.134;2022-10-03T00:56:58;1.87;;;1.37;;
12861;SDS011;6499;66.348;14.134;2022-10-03T00:59:32;1.50;;;1.20;;
12861;SDS011;6499;66.348;14.134;2022-10-03T01:02:19;1.57;;;1.20;;
12861;SDS011;6499;66.348;14.134;2022-10-03T01:04:51;1.43;;;1.13;;
12861;SDS011;6499;66.348;14.134;2022-10-03T01:07:28;2.10;;;1.60;;
12861;SDS011;6499;66.348;14.134;2022-10-03T01:10:02;1.90;;;1.30;;
12861;SDS011;6499;66.348;14.134;2022-10-03T01:12:39;1.50;;;1.40;;
12861;SDS011;6499;66.348;14.134;2022-10-03T01:15:15;1.80;;;1.60;;
12861;SDS011;6499;66.348;14.134;2022-10-03T01:17:47;2.53;;;1.47;;
12861;SDS011;6499;66.348;14.134;2022-10-03T01:20:21;2.13;;;1.40;;
12861;SDS011;6499;66.348;14.134;2022-10-03T01:23:01;2.30;;;1.40;;
12861;SDS011;6499;66.348;14.134;2022-10-03T01:25:35;1.83;;;1.30;;
12861;SDS011;6499;66.348;14.134;2022-10-03T01:30:50;2.47;;;1.20;;
12861;SDS011;6499;66.348;14.134;2022-10-03T01:33:20;3.00;;;1.30;;
12861;SDS011;6499;66.348;14.134;2022-10-03T01:35:51;1.93;;;1.40;;
12861;SDS011;6499;66.348;14.134;2022-10-03T01:38:20;1.50;;;1.40;;
12861;SDS011;6499;66.348;14.134;2022-10-03T01:40:49;2.40;;;1.40;;
12861;SDS011;6499;66.348;14.134;2022-10-03T01:43:20;1.80;;;1.40;;
12861;SDS011;6499;66.348;14.134;2022-10-03T01:45:53;1.63;;;1.40;;
12861;SDS011;6499;66.348;14.134;2022-10-03T01:48:21;1.50;;;1.40;;
12861;SDS011;6499;66.348;14.134;2022-10-03T01:50:54;1.33;;;1.20;;
12861;SDS011;6499;66.348;14.134;2022-10-03T01:53:25;2.23;;;1.60;;
12861;SDS011;6499;66.348;14.134;2022-10-03T01:56:01;1.73;;;1.20;;
12861;SDS011;6499;66.348;14.134;2022-10-03T01:58:31;2.27;;;1.37;;
12861;SDS011;6499;66.348;14.134;2022-10-03T02:01:05;1.87;;;1.40;;
12861;SDS011;6499;66.348;14.134;2022-10-03T02:03:35;4.07;;;1.57;;
12861;SDS011;6499;66.348;14.134;2022-10-03T02:06:05;1.63;;;1.47;;
12861;SDS011;6499;66.348;14.134;2022-10-03T02:08:36;2.50;;;1.50;;
12861;SDS011;6499;66.348;14.134;2022-10-03T02:11:08;1.67;;;1.27;;
12861;SDS011;6499;66.348;14.134;2022-10-03T02:13:39;1.83;;;1.43;;
12861;SDS011;6499;66.348;14.134;2022-10-03T02:16:08;2.83;;;1.57;;
12861;SDS011;6499;66.348;14.134;2022-10-03T02:18:37;1.70;;;1.47;;
12861;SDS011;6499;66.348;14.134;2022-10-03T02:21:07;3.60;;;1.47;;
12861;SDS011;6499;66.348;14.134;2022-10-03T02:23:38;1.93;;;1.40;;
12861;SDS011;6499;66.348;14.134;2022-10-03T02:26:19;3.33;;;1.47;;
12861;SDS011;6499;66.348;14.134;2022-10-03T02:29:04;2.40;;;1.37;;
12861;SDS011;6499;66.348;14.134;2022-10-03T02:31:46;1.80;;;1.33;;
12861;SDS011;6499;66.348;14.134;2022-10-03T02:37:07;2.50;;;1.53;;
12861;SDS011;6499;66.348;14.134;2022-10-03T02:42:32;2.07;;;1.37;;
12861;SDS011;6499;66.348;14.134;2022-10-03T02:45:12;2.97;;;1.60;;
12861;SDS011;6499;66.348;14.134;2022-10-03T02:56:14;2.00;;;1.50;;
12861;SDS011;6499;66.348;14.134;2022-10-03T03:01:46;3.50;;;1.30;;
12861;SDS011;6499;66.348;14.134;2022-10-03T03:04:34;1.73;;;1.37;;
12861;SDS011;6499;66.348;14.134;2022-10-03T03:10:05;1.43;;;1.30;;
12861;SDS011;6499;66.348;14.134;2022-10-03T03:12:57;1.43;;;1.20;;
12861;SDS011;6499;66.348;14.134;2022-10-03T03:18:18;1.53;;;1.20;;
12861;SDS011;6499;66.348;14.134;2022-10-03T03:26:40;1.13;;;1.00;;
12861;SDS011;6499;66.348;14.134;2022-10-03T03:29:14;1.70;;;1.40;;
12861;SDS011;6499;66.348;14.134;2022-10-03T03:31:44;2.57;;;1.53;;
12861;SDS011;6499;66.348;14.134;2022-10-03T03:34:13;2.87;;;1.50;;
12861;SDS011;6499;66.348;14.134;2022-10-03T03:36:44;1.33;;;1.20;;
12861;SDS011;6499;66.348;14.134;2022-10-03T03:39:17;2.00;;;1.20;;
12861;SDS011;6499;66.348;14.134;2022-10-03T03:41:51;1.63;;;1.40;;
12861;SDS011;6499;66.348;14.134;2022-10-03T03:44:45;2.33;;;1.60;;
12861;SDS011;6499;66.348;14.134;2022-10-03T03:47:24;2.17;;;1.43;;
12861;SDS011;6499;66.348;14.134;2022-10-03T03:50:02;2.47;;;1.50;;
12861;SDS011;6499;66.348;14.134;2022-10-03T03:52:41;2.90;;;1.63;;
12861;SDS011;6499;66.348;14.134;2022-10-03T03:55:25;1.50;;;1.40;;
12861;SDS011;6499;66.348;14.134;2022-10-03T03:57:59;1.30;;;1.20;;
12861;SDS011;6499;66.348;14.134;2022-10-03T04:00:32;1.23;;;1.13;;
12861;SDS011;6499;66.348;14.134;2022-10-03T04:03:16;1.50;;;1.20;;
12861;SDS011;6499;66.348;14.134;2022-10-03T04:06:00;3.53;;;1.47;;
12861;SDS011;6499;66.348;14.134;2022-10-03T04:08:38;2.00;;;1.40;;
12861;SDS011;6499;66.348;14.134;2022-10-03T04:11:11;3.80;;;1.63;;
12861;SDS011;6499;66.348;14.134;2022-10-03T04:16:33;1.40;;;1.30;;
12861;SDS011;6499;66.348;14.134;2022-10-03T04:19:22;2.20;;;1.60;;
12861;SDS011;6499;66.348;14.134;2022-10-03T04:22:04;1.63;;;1.53;;
12861;SDS011;6499;66.348;14.134;2022-10-03T04:30:04;2.53;;;1.80;;
12861;SDS011;6499;66.348;14.134;2022-10-03T04:32:40;2.87;;;1.70;;
12861;SDS011;6499;66.348;14.134;2022-10-03T04:35:17;2.67;;;1.93;;
12861;SDS011;6499;66.348;14.134;2022-10-03T04:37:48;2.50;;;1.80;;
12861;SDS011;6499;66.348;14.134;2022-10-03T04:40:22;2.33;;;1.80;;
12861;SDS011;6499;66.348;14.134;2022-10-03T04:42:53;2.30;;;1.50;;
12861;SDS011;6499;66.348;14.134;2022-10-03T04:45:30;3.47;;;1.53;;
12861;SDS011;6499;66.348;14.134;2022-10-03T04:48:04;2.60;;;1.70;;
12861;SDS011;6499;66.348;14.134;2022-10-03T04:50:36;2.60;;;1.47;;
12861;SDS011;6499;66.348;14.134;2022-10-03T04:53:16;2.10;;;1.57;;
12861;SDS011;6499;66.348;14.134;2022-10-03T04:55:44;1.60;;;1.50;;
12861;SDS011;6499;66.348;14.134;2022-10-03T04:58:14;2.27;;;1.60;;
12861;SDS011;6499;66.348;14.134;2022-10-03T05:00:46;2.10;;;1.60;;
12861;SDS011;6499;66.348;14.134;2022-10-03T05:03:20;2.17;;;1.73;;
12861;SDS011;6499;66.348;14.134;2022-10-03T05:05:53;1.70;;;1.50;;
12861;SDS011;6499;66.348;14.134;2022-10-03T05:08:26;2.60;;;1.40;;
12861;SDS011;6499;66.348;14.134;2022-10-03T05:10:59;2.10;;;1.43;;
12861;SDS011;6499;66.348;14.134;2022-10-03T05:13:38;2.07;;;1.60;;
12861;SDS011;6499;66.348;14.134;2022-10-03T05:16:15;2.17;;;1.60;;
12861;SDS011;6499;66.348;14.134;2022-10-03T05:18:46;2.27;;;1.80;;
12861;SDS011;6499;66.348;14.134;2022-10-03T05:21:20;2.37;;;1.50;;
12861;SDS011;6499;66.348;14.134;2022-10-03T05:23:52;2.40;;;2.07;;
12861;SDS011;6499;66.348;14.134;2022-10-03T05:26:29;3.03;;;1.53;;
12861;SDS011;6499;66.348;14.134;2022-10-03T05:29:02;1.87;;;1.67;;
12861;SDS011;6499;66.348;14.134;2022-10-03T05:31:34;1.97;;;1.50;;
12861;SDS011;6499;66.348;14.134;2022-10-03T05:34:11;2.77;;;2.00;;
12861;SDS011;6499;66.348;14.134;2022-10-03T05:36:56;2.50;;;1.47;;
12861;SDS011;6499;66.348;14.134;2022-10-03T05:39:27;2.43;;;1.50;;
12861;SDS011;6499;66.348;14.134;2022-10-03T05:41:59;3.03;;;1.40;;
12861;SDS011;6499;66.348;14.134;2022-10-03T05:44:36;1.83;;;1.70;;
12861;SDS011;6499;66.348;14.134;2022-10-03T05:47:07;2.27;;;2.03;;
12861;SDS011;6499;66.348;14.134;2022-10-03T05:50:02;1.90;;;1.80;;
12861;SDS011;6499;66.348;14.134;2022-10-03T05:52:41;2.43;;;2.20;;
12861;SDS011;6499;66.348;14.134;2022-10-03T05:55:17;2.90;;;2.37;;
12861;SDS011;6499;66.348;14.134;2022-10-03T06:00:32;2.53;;;1.80;;
12861;SDS011;6499;66.348;14.134;2022-10-03T06:08:37;4.30;;;2.43;;
12861;SDS011;6499;66.348;14.134;2022-10-03T06:11:13;3.40;;;2.47;;
12861;SDS011;6499;66.348;14.134;2022-10-03T06:13:46;4.33;;;2.83;;
12861;SDS011;6499;66.348;14.134;2022-10-03T06:16:22;3.80;;;2.90;;
12861;SDS011;6499;66.348;14.134;2022-10-03T06:19:06;5.13;;;2.80;;
12861;SDS011;6499;66.348;14.134;2022-10-03T06:21:47;6.10;;;3.00;;
12861;SDS011;6499;66.348;14.134;2022-10-03T06:27:10;5.37;;;3.43;;
12861;SDS011;6499;66.348;14.134;2022-10-03T06:32:41;3.57;;;2.90;;
12861;SDS011;6499;66.348;14.134;2022-10-03T06:40:56;4.07;;;2.90;;
12861;SDS011;6499;66.348;14.134;2022-10-03T06:43:33;3.23;;;2.93;;
12861;SDS011;6499;66.348;14.134;2022-10-03T06:46:15;4.60;;;3.13;;
12861;SDS011;6499;66.348;14.134;2022-10-03T06:59:58;4.60;;;3.40;;
12861;SDS011;6499;66.348;14.134;2022-10-03T07:10:50;3.77;;;3.00;;
12861;SDS011;6499;66.348;14.134;2022-10-03T07:21:42;6.10;;;3.80;;
12861;SDS011;6499;66.348;14.134;2022-10-03T07:24:18;6.23;;;4.17;;
12861;SDS011;6499;66.348;14.134;2022-10-03T07:26:55;5.87;;;3.73;;
12861;SDS011;6499;66.348;14.134;2022-10-03T07:29:32;6.43;;;4.10;;
12861;SDS011;6499;66.348;14.134;2022-10-03T07:32:10;6.47;;;4.10;;
12861;SDS011;6499;66.348;14.134;2022-10-03T07:37:28;6.13;;;4.40;;
12861;SDS011;6499;66.348;14.134;2022-10-03T07:40:32;5.63;;;4.20;;
12861;SDS011;6499;66.348;14.134;2022-10-03T07:46:02;5.33;;;3.50;;
12861;SDS011;6499;66.348;14.134;2022-10-03T07:51:20;5.93;;;4.37;;
12861;SDS011;6499;66.348;14.134;2022-10-03T07:56:40;4.40;;;3.17;;
12861;SDS011;6499;66.348;14.134;2022-10-03T08:01:55;4.20;;;3.20;;
12861;SDS011;6499;66.348;14.134;2022-10-03T08:07:19;4.53;;;3.20;;
12861;SDS011;6499;66.348;14.134;2022-10-03T08:10:00;4.00;;;2.90;;
12861;SDS011;6499;66.348;14.134;2022-10-03T08:15:29;3.43;;;3.07;;
12861;SDS011;6499;66.348;14.134;2022-10-03T08:20:50;4.20;;;2.50;;
12861;SDS011;6499;66.348;14.134;2022-10-03T08:23:30;4.27;;;2.87;;
12861;SDS011;6499;66.348;14.134;2022-10-03T08:26:04;3.50;;;2.50;;
12861;SDS011;6499;66.348;14.134;2022-10-03T08:28:41;4.43;;;2.80;;
12861;SDS011;6499;66.348;14.134;2022-10-03T08:31:27;4.40;;;2.87;;
12861;SDS011;6499;66.348;14.134;2022-10-03T08:36:47;3.30;;;2.97;;
12861;SDS011;6499;66.348;14.134;2022-10-03T08:39:28;5.73;;;3.43;;
12861;SDS011;6499;66.348;14.134;2022-10-03T08:44:47;3.70;;;3.13;;
12861;SDS011;6499;66.348;14.134;2022-10-03T08:47:25;4.07;;;2.93;;
12861;SDS011;6499;66.348;14.134;2022-10-03T08:53:15;4.10;;;2.53;;
12861;SDS011;6499;66.348;14.134;2022-10-03T08:55:48;5.07;;;2.40;;
12861;SDS011;6499;66.348;14.134;2022-10-03T08:58:35;3.77;;;2.00;;
12861;SDS011;6499;66.348;14.134;2022-10-03T09:04:22;3.20;;;2.00;;
12861;SDS011;6499;66.348;14.134;2022-10-03T09:07:07;2.27;;;1.20;;
12861;SDS011;6499;66.348;14.134;2022-10-03T09:12:33;2.47;;;1.27;;
12861;SDS011;6499;66.348;14.134;2022-10-03T09:15:09;3.80;;;1.20;;
12861;SDS011;6499;66.348;14.134;2022-10-03T09:44:11;1.97;;;0.90;;
12861;SDS011;6499;66.348;14.134;2022-10-03T10:00:27;1.00;;;0.60;;
12861;SDS011;6499;66.348;14.134;2022-10-03T10:06:02;2.50;;;0.70;;
12861;SDS011;6499;66.348;14.134;2022-10-03T10:08:34;1.43;;;0.77;;
12861;SDS011;6499;66.348;14.134;2022-10-03T10:11:16;1.73;;;0.67;;
12861;SDS011;6499;66.348;14.134;2022-10-03T10:16:42;1.33;;;0.50;;
12861;SDS011;6499;66.348;14.134;2022-10-03T10:19:25;1.47;;;0.67;;
12861;SDS011;6499;66.348;14.134;2022-10-03T10:22:17;4.33;;;0.90;;
12861;SDS011;6499;66.348;14.134;2022-10-03T10:30:20;1.70;;;0.73;;
12861;SDS011;6499;66.348;14.134;2022-10-03T10:33:01;3.03;;;1.30;;
12861;SDS011;6499;66.348;14.134;2022-10-03T10:35:42;3.27;;;0.80;;
12861;SDS011;6499;66.348;14.134;2022-10-03T10:43:50;2.37;;;0.80;;
12861;SDS011;6499;66.348;14.134;2022-10-03T10:46:36;2.37;;;0.80;;
12861;SDS011;6499;66.348;14.134;2022-10-03T10:57:24;2.53;;;0.90;;
12861;SDS011;6499;66.348;14.134;2022-10-03T11:08:20;2.93;;;0.73;;
12861;SDS011;6499;66.348;14.134;2022-10-03T11:11:01;3.80;;;1.10;;
12861;SDS011;6499;66.348;14.134;2022-10-03T11:24:48;2.50;;;0.90;;
12861;SDS011;6499;66.348;14.134;2022-10-03T11:27:44;2.97;;;0.83;;
12861;SDS011;6499;66.348;14.134;2022-10-03T11:33:18;2.07;;;0.60;;
12861;SDS011;6499;66.348;14.134;2022-10-03T11:36:06;3.83;;;0.80;;
12861;SDS011;6499;66.348;14.134;2022-10-03T11:38:37;1.87;;;0.90;;
12861;SDS011;6499;66.348;14.134;2022-10-03T11:41:13;2.20;;;1.00;;
12861;SDS011;6499;66.348;14.134;2022-10-03T11:43:51;1.33;;;0.90;;
12861;SDS011;6499;66.348;14.134;2022-10-03T11:46:22;2.57;;;1.00;;
12861;SDS011;6499;66.348;14.134;2022-10-03T11:48:56;1.67;;;0.70;;
12861;SDS011;6499;66.348;14.134;2022-10-03T11:51:34;3.17;;;1.10;;
12861;SDS011;6499;66.348;14.134;2022-10-03T11:54:03;2.03;;;0.90;;
12861;SDS011;6499;66.348;14.134;2022-10-03T11:56:37;2.93;;;1.00;;
12861;SDS011;6499;66.348;14.134;2022-10-03T12:02:02;1.30;;;0.60;;
12861;SDS011;6499;66.348;14.134;2022-10-03T12:04:35;3.37;;;0.80;;
12861;SDS011;6499;66.348;14.134;2022-10-03T12:07:05;2.47;;;0.80;;
12861;SDS011;6499;66.348;14.134;2022-10-03T12:09:54;2.00;;;0.93;;
12861;SDS011;6499;66.348;14.134;2022-10-03T12:12:27;3.43;;;1.13;;
12861;SDS011;6499;66.348;14.134;2022-10-03T12:14:56;2.30;;;0.90;;
12861;SDS011;6499;66.348;14.134;2022-10-03T12:17:26;2.07;;;0.90;;
12861;SDS011;6499;66.348;14.134;2022-10-03T12:19:55;2.90;;;0.90;;
12861;SDS011;6499;66.348;14.134;2022-10-03T12:22:30;3.10;;;1.13;;
12861;SDS011;6499;66.348;14.134;2022-10-03T12:25:00;3.20;;;0.80;;
12861;SDS011;6499;66.348;14.134;2022-10-03T12:27:30;2.17;;;0.70;;
12861;SDS011;6499;66.348;14.134;2022-10-03T12:29:59;2.87;;;0.70;;
12861;SDS011;6499;66.348;14.134;2022-10-03T12:32:29;1.13;;;0.60;;
12861;SDS011;6499;66.348;14.134;2022-10-03T12:35:11;1.70;;;0.60;;
12861;SDS011;6499;66.348;14.134;2022-10-03T12:37:42;2.30;;;1.03;;
12861;SDS011;6499;66.348;14.134;2022-10-03T12:40:17;2.13;;;0.80;;
12861;SDS011;6499;66.348;14.134;2022-10-03T12:42:54;2.23;;;1.00;;
12861;SDS011;6499;66.348;14.134;2022-10-03T12:45:25;3.13;;;1.00;;
12861;SDS011;6499;66.348;14.134;2022-10-03T12:50:53;1.67;;;0.73;;
12861;SDS011;6499;66.348;14.134;2022-10-03T12:56:16;1.93;;;1.00;;
12861;SDS011;6499;66.348;14.134;2022-10-03T12:58:49;2.83;;;1.20;;
12861;SDS011;6499;66.348;14.134;2022-10-03T13:01:19;2.47;;;0.83;;
12861;SDS011;6499;66.348;14.134;2022-10-03T13:03:49;3.47;;;1.20;;
12861;SDS011;6499;66.348;14.134;2022-10-03T13:06:26;3.83;;;1.13;;
12861;SDS011;6499;66.348;14.134;2022-10-03T13:09:02;2.40;;;0.93;;
12861;SDS011;6499;66.348;14.134;2022-10-03T13:11:36;2.40;;;1.20;;
12861;SDS011;6499;66.348;14.134;2022-10-03T13:14:13;2.47;;;0.80;;
12861;SDS011;6499;66.348;14.134;2022-10-03T13:16:43;3.83;;;1.00;;
12861;SDS011;6499;66.348;14.134;2022-10-03T13:19:13;3.37;;;1.17;;
12861;SDS011;6499;66.348;14.134;2022-10-03T13:21:54;2.13;;;0.80;;
12861;SDS011;6499;66.348;14.134;2022-10-03T13:24:28;7.07;;;5.87;;
12861;SDS011;6499;66.348;14.134;2022-10-03T13:27:01;5.27;;;2.97;;
12861;SDS011;6499;66.348;14.134;2022-10-03T13:29:33;2.50;;;1.50;;
12861;SDS011;6499;66.348;14.134;2022-10-03T13:32:11;1.97;;;1.10;;
12861;SDS011;6499;66.348;14.134;2022-10-03T13:34:46;2.10;;;1.10;;
12861;SDS011;6499;66.348;14.134;2022-10-03T13:37:19;4.03;;;1.57;;
12861;SDS011;6499;66.348;14.134;2022-10-03T13:39:50;3.33;;;1.17;;
12861;SDS011;6499;66.348;14.134;2022-10-03T13:42:18;6.43;;;1.33;;
12861;SDS011;6499;66.348;14.134;2022-10-03T13:44:48;5.00;;;1.40;;
12861;SDS011;6499;66.348;14.134;2022-10-03T13:47:40;2.60;;;1.00;;
12861;SDS011;6499;66.348;14.134;2022-10-03T13:50:12;2.37;;;1.00;;
12861;SDS011;6499;66.348;14.134;2022-10-03T13:52:41;4.87;;;1.60;;
12861;SDS011;6499;66.348;14.134;2022-10-03T13:55:16;4.23;;;1.23;;
12861;SDS011;6499;66.348;14.134;2022-10-03T13:57:44;2.20;;;0.90;;
12861;SDS011;6499;66.348;14.134;2022-10-03T14:00:14;2.23;;;0.90;;
12861;SDS011;6499;66.348;14.134;2022-10-03T14:08:41;2.87;;;1.00;;
12861;SDS011;6499;66.348;14.134;2022-10-03T14:11:41;2.33;;;0.90;;
12861;SDS011;6499;66.348;14.134;2022-10-03T14:17:01;4.50;;;0.90;;
12861;SDS011;6499;66.348;14.134;2022-10-03T14:19:33;1.57;;;0.77;;
12861;SDS011;6499;66.348;14.134;2022-10-03T14:22:05;4.30;;;1.10;;
12861;SDS011;6499;66.348;14.134;2022-10-03T14:24:44;2.87;;;0.80;;
12861;SDS011;6499;66.348;14.134;2022-10-03T14:27:17;3.13;;;1.13;;
12861;SDS011;6499;66.348;14.134;2022-10-03T14:29:50;2.07;;;0.90;;
12861;SDS011;6499;66.348;14.134;2022-10-03T14:32:32;1.43;;;0.70;;
12861;SDS011;6499;66.348;14.134;2022-10-03T14:35:22;1.43;;;0.63;;
12861;SDS011;6499;66.348;14.134;2022-10-03T14:38:04;2.97;;;0.80;;
12861;SDS011;6499;66.348;14.134;2022-10-03T14:41:08;4.00;;;0.90;;
12861;SDS011;6499;66.348;14.134;2022-10-03T14:43:42;3.03;;;0.80;;
12861;SDS011;6499;66.348;14.134;2022-10-03T14:46:12;1.87;;;0.80;;
12861;SDS011;6499;66.348;14.134;2022-10-03T14:57:39;1.57;;;0.60;;
12861;SDS011;6499;66.348;14.134;2022-10-03T15:03:26;2.33;;;0.70;;
12861;SDS011;6499;66.348;14.134;2022-10-03T15:12:02;1.60;;;0.83;;
12861;SDS011;6499;66.348;14.134;2022-10-03T15:14:52;2.53;;;0.73;;
12861;SDS011;6499;66.348;14.134;2022-10-03T15:25:31;2.43;;;1.00;;
12861;SDS011;6499;66.348;14.134;2022-10-03T15:28:06;1.80;;;0.70;;
12861;SDS011;6499;66.348;14.134;2022-10-03T15:29:33;2.60;;;0.87;;
12861;SDS011;6499;66.348;14.134;2022-10-03T15:32:15;3.40;;;1.00;;
12861;SDS011;6499;66.348;14.134;2022-10-03T15:35:27;1.30;;;0.70;;
12861;SDS011;6499;66.348;14.134;2022-10-03T15:38:36;1.63;;;0.90;;
12861;SDS011;6499;66.348;14.134;2022-10-03T15:41:22;3.10;;;0.77;;
12861;SDS011;6499;66.348;14.134;2022-10-03T15:44:20;1.60;;;0.83;;
12861;SDS011;6499;66.348;14.134;2022-10-03T15:47:29;2.17;;;0.90;;
12861;SDS011;6499;66.348;14.134;2022-10-03T15:50:05;2.30;;;0.80;;
12861;SDS011;6499;66.348;14.134;2022-10-03T15:53:19;1.50;;;0.60;;
12861;SDS011;6499;66.348;14.134;2022-10-03T15:56:06;3.20;;;0.67;;
12861;SDS011;6499;66.348;14.134;2022-10-03T15:58:42;0.80;;;0.50;;
12861;SDS011;6499;66.348;14.134;2022-10-03T16:01:11;2.70;;;0.90;;
12861;SDS011;6499;66.348;14.134;2022-10-03T16:06:39;1.70;;;0.57;;
12861;SDS011;6499;66.348;14.134;2022-10-03T16:11:33;2.13;;;0.80;;
12861;SDS011;6499;66.348;14.134;2022-10-03T16:15:22;3.03;;;1.00;;
12861;SDS011;6499;66.348;14.134;2022-10-03T16:17:59;1.93;;;0.77;;
12861;SDS011;6499;66.348;14.134;2022-10-03T16:20:47;2.00;;;0.80;;
12861;SDS011;6499;66.348;14.134;2022-10-03T16:35:35;3.87;;;1.30;;
12861;SDS011;6499;66.348;14.134;2022-10-03T16:38:14;4.00;;;1.47;;
12861;SDS011;6499;66.348;14.134;2022-10-03T16:40:47;3.33;;;1.10;;
12861;SDS011;6499;66.348;14.134;2022-10-03T16:46:53;2.30;;;1.10;;
12861;SDS011;6499;66.348;14.134;2022-10-03T16:50:51;1.93;;;0.93;;
12861;SDS011;6499;66.348;14.134;2022-10-03T16:52:57;2.63;;;1.03;;
12861;SDS011;6499;66.348;14.134;2022-10-03T16:55:26;2.43;;;1.10;;
12861;SDS011;6499;66.348;14.134;2022-10-03T16:57:54;1.30;;;0.90;;
12861;SDS011;6499;66.348;14.134;2022-10-03T17:00:25;2.37;;;0.90;;
12861;SDS011;6499;66.348;14.134;2022-10-03T17:03:34;3.33;;;0.90;;
12861;SDS011;6499;66.348;14.134;2022-10-03T17:05:56;2.20;;;1.07;;
12861;SDS011;6499;66.348;14.134;2022-10-03T17:08:32;2.80;;;1.00;;
12861;SDS011;6499;66.348;14.134;2022-10-03T17:11:11;2.53;;;1.10;;
12861;SDS011;6499;66.348;14.134;2022-10-03T17:13:58;3.07;;;1.23;;
12861;SDS011;6499;66.348;14.134;2022-10-03T17:19:20;3.83;;;0.83;;
12861;SDS011;6499;66.348;14.134;2022-10-03T17:22:39;2.47;;;1.30;;
12861;SDS011;6499;66.348;14.134;2022-10-03T17:46:00;7.10;;;4.57;;
12861;SDS011;6499;66.348;14.134;2022-10-03T17:49:00;5.03;;;3.43;;
12861;SDS011;6499;66.348;14.134;2022-10-03T17:51:36;3.93;;;2.10;;
12861;SDS011;6499;66.348;14.134;2022-10-03T17:54:04;4.47;;;3.50;;
12861;SDS011;6499;66.348;14.134;2022-10-03T17:57:15;3.03;;;1.87;;
12861;SDS011;6499;66.348;14.134;2022-10-03T17:59:39;3.83;;;1.47;;
12861;SDS011;6499;66.348;14.134;2022-10-03T18:02:14;3.13;;;1.67;;
12861;SDS011;6499;66.348;14.134;2022-10-03T18:04:57;4.80;;;3.13;;
12861;SDS011;6499;66.348;14.134;2022-10-03T18:07:25;10.43;;;4.80;;
12861;SDS011;6499;66.348;14.134;2022-10-03T18:21:45;3.60;;;2.33;;
12861;SDS011;6499;66.348;14.134;2022-10-03T18:24:21;4.33;;;2.23;;
12861;SDS011;6499;66.348;14.134;2022-10-03T18:26:53;2.13;;;1.30;;
12861;SDS011;6499;66.348;14.134;2022-10-03T18:29:24;2.83;;;1.47;;
12861;SDS011;6499;66.348;14.134;2022-10-03T18:31:54;5.50;;;3.97;;
12861;SDS011;6499;66.348;14.134;2022-10-03T18:34:24;3.83;;;1.63;;
12861;SDS011;6499;66.348;14.134;2022-10-03T18:36:53;2.47;;;1.57;;
12861;SDS011;6499;66.348;14.134;2022-10-03T18:39:21;3.03;;;1.60;;
12861;SDS011;6499;66.348;14.134;2022-10-03T18:41:51;4.67;;;1.57;;
12861;SDS011;6499;66.348;14.134;2022-10-03T18:44:18;3.27;;;1.77;;
12861;SDS011;6499;66.348;14.134;2022-10-03T18:46:45;2.60;;;1.17;;
12861;SDS011;6499;66.348;14.134;2022-10-03T18:49:19;4.20;;;2.90;;
12861;SDS011;6499;66.348;14.134;2022-10-03T18:51:48;4.87;;;1.90;;
12861;SDS011;6499;66.348;14.134;2022-10-03T18:54:23;5.53;;;1.83;;
12861;SDS011;6499;66.348;14.134;2022-10-03T18:57:05;5.30;;;1.40;;
12861;SDS011;6499;66.348;14.134;2022-10-03T18:59:35;4.70;;;1.53;;
12861;SDS011;6499;66.348;14.134;2022-10-03T19:02:03;3.63;;;1.40;;
12861;SDS011;6499;66.348;14.134;2022-10-03T19:04:35;2.33;;;1.10;;
12861;SDS011;6499;66.348;14.134;2022-10-03T19:07:08;2.57;;;1.37;;
12861;SDS011;6499;66.348;14.134;2022-10-03T19:09:43;3.87;;;1.80;;
12861;SDS011;6499;66.348;14.134;2022-10-03T19:12:13;3.47;;;1.33;;
12861;SDS011;6499;66.348;14.134;2022-10-03T19:14:49;5.50;;;1.37;;
12861;SDS011;6499;66.348;14.134;2022-10-03T19:17:22;3.30;;;1.37;;
12861;SDS011;6499;66.348;14.134;2022-10-03T19:19:58;2.20;;;1.30;;
12861;SDS011;6499;66.348;14.134;2022-10-03T19:22:38;3.03;;;1.30;;
12861;SDS011;6499;66.348;14.134;2022-10-03T19:25:15;3.10;;;1.40;;
12861;SDS011;6499;66.348;14.134;2022-10-03T19:27:47;2.70;;;1.13;;
12861;SDS011;6499;66.348;14.134;2022-10-03T19:30:17;2.40;;;1.30;;
12861;SDS011;6499;66.348;14.134;2022-10-03T19:32:52;2.93;;;1.20;;
12861;SDS011;6499;66.348;14.134;2022-10-03T19:35:22;2.77;;;1.07;;
12861;SDS011;6499;66.348;14.134;2022-10-03T19:37:50;2.60;;;1.33;;
12861;SDS011;6499;66.348;14.134;2022-10-03T19:40:32;1.27;;;1.00;;
12861;SDS011;6499;66.348;14.134;2022-10-03T19:46:01;2.00;;;1.23;;
12861;SDS011;6499;66.348;14.134;2022-10-03T19:48:31;2.17;;;1.13;;
12861;SDS011;6499;66.348;14.134;2022-10-03T19:51:12;1.93;;;0.90;;
12861;SDS011;6499;66.348;14.134;2022-10-03T19:53:41;2.53;;;1.03;;
12861;SDS011;6499;66.348;14.134;2022-10-03T19:56:12;2.47;;;1.17;;
12861;SDS011;6499;66.348;14.134;2022-10-03T19:58:40;2.30;;;0.93;;
12861;SDS011;6499;66.348;14.134;2022-10-03T20:01:09;3.13;;;1.20;;
12861;SDS011;6499;66.348;14.134;2022-10-03T20:03:37;2.60;;;1.20;;
12861;SDS011;6499;66.348;14.134;2022-10-03T20:06:05;2.37;;;1.40;;
12861;SDS011;6499;66.348;14.134;2022-10-03T20:08:34;2.47;;;1.80;;
12861;SDS011;6499;66.348;14.134;2022-10-03T20:11:20;2.73;;;1.33;;
12861;SDS011;6499;66.348;14.134;2022-10-03T20:13:50;2.90;;;1.30;;
12861;SDS011;6499;66.348;14.134;2022-10-03T20:16:18;3.23;;;1.20;;
12861;SDS011;6499;66.348;14.134;2022-10-03T20:18:46;3.10;;;1.30;;
12861;SDS011;6499;66.348;14.134;2022-10-03T20:21:16;1.87;;;1.30;;
12861;SDS011;6499;66.348;14.134;2022-10-03T20:23:43;2.53;;;1.77;;
12861;SDS011;6499;66.348;14.134;2022-10-03T20:26:11;4.03;;;2.10;;
12861;SDS011;6499;66.348;14.134;2022-10-03T20:28:43;4.30;;;1.80;;
12861;SDS011;6499;66.348;14.134;2022-10-03T20:31:17;1.97;;;1.43;;
12861;SDS011;6499;66.348;14.134;2022-10-03T20:33:44;2.73;;;1.60;;
12861;SDS011;6499;66.348;14.134;2022-10-03T20:36:12;3.23;;;1.40;;
12861;SDS011;6499;66.348;14.134;2022-10-03T20:38:46;2.03;;;1.37;;
12861;SDS011;6499;66.348;14.134;2022-10-03T20:41:16;2.97;;;1.60;;
12861;SDS011;6499;66.348;14.134;2022-10-03T20:43:47;3.80;;;1.60;;
12861;SDS011;6499;66.348;14.134;2022-10-03T20:46:18;3.30;;;1.60;;
12861;SDS011;6499;66.348;14.134;2022-10-03T20:48:52;2.00;;;1.30;;
12861;SDS011;6499;66.348;14.134;2022-10-03T20:51:23;3.37;;;1.50;;
12861;SDS011;6499;66.348;14.134;2022-10-03T20:54:02;2.53;;;1.47;;
12861;SDS011;6499;66.348;14.134;2022-10-03T20:56:30;1.87;;;1.30;;
12861;SDS011;6499;66.348;14.134;2022-10-03T20:59:02;3.87;;;1.40;;
12861;SDS011;6499;66.348;14.134;2022-10-03T21:01:31;2.93;;;1.30;;
12861;SDS011;6499;66.348;14.134;2022-10-03T21:04:02;1.83;;;1.17;;
12861;SDS011;6499;66.348;14.134;2022-10-03T21:06:30;2.60;;;1.10;;